Time;durP1;ratioP1;P1;durP2;ratioP2;P2;SDS_P1;SDS_P2;PMS_P1;PMS_P2;Temp;Humidity;BMP_temperature;BMP_pressure;BME280_temperature;BME280_humidity;BME280_pressure;Samples;Min_cycle;Max_cycle;Signal;HPM_P1;HPM_P2
2022/11/08 00:01:37;;;;;;;12.48;2.92;;;13.00;99.90;;;;;;5115479;28;20039;-68
2022/11/08 00:04:12;;;;;;;11.57;2.90;;;13.00;99.90;;;;;;5116633;28;20051;-68
2022/11/08 00:14:52;;;;;;;13.18;3.00;;;13.00;99.90;;;;;;5115200;28;20096;-68
2022/11/08 00:17:19;;;;;;;13.57;2.92;;;13.00;99.90;;;;;;5115445;28;20039;-68
2022/11/08 00:19:45;;;;;;;14.07;2.63;;;13.00;99.90;;;;;;5115133;28;20042;-68
2022/11/08 00:22:11;;;;;;;9.68;2.15;;;13.00;99.90;;;;;;5116522;28;20109;-68
2022/11/08 00:24:37;;;;;;;10.65;2.83;;;13.00;99.90;;;;;;5116260;28;20039;-68
2022/11/08 00:27:06;;;;;;;16.45;2.85;;;13.00;99.90;;;;;;5114922;28;20069;-68
2022/11/08 00:29:34;;;;;;;12.48;2.78;;;13.00;99.90;;;;;;5114897;28;20054;-68
2022/11/08 00:32:00;;;;;;;12.98;3.13;;;13.00;99.90;;;;;;5116034;28;20043;-68
2022/11/08 00:34:26;;;;;;;12.48;2.63;;;13.00;99.90;;;;;;5097778;28;20434;-68
2022/11/08 00:36:52;;;;;;;15.02;3.28;;;13.00;99.90;;;;;;5116011;28;20081;-68
2022/11/08 00:39:18;;;;;;;10.27;2.40;;;13.00;99.90;;;;;;5116250;28;20027;-68
2022/11/08 00:41:44;;;;;;;12.30;3.20;;;13.00;99.90;;;;;;5114818;28;20066;-68
2022/11/08 00:44:10;;;;;;;12.80;2.40;;;12.90;99.90;;;;;;5114894;28;20488;-68
2022/11/08 00:46:37;;;;;;;12.57;2.90;;;12.90;99.90;;;;;;5114940;28;20048;-68
2022/11/08 00:49:04;;;;;;;16.05;3.17;;;12.90;99.90;;;;;;5114525;28;20496;-68
2022/11/08 00:51:30;;;;;;;13.50;3.63;;;12.90;99.90;;;;;;5115936;28;20043;-68
2022/11/08 00:53:56;;;;;;;14.88;2.92;;;12.90;99.90;;;;;;5114332;28;20040;-68
2022/11/08 00:56:21;;;;;;;12.88;2.90;;;12.90;99.90;;;;;;5113872;28;20035;-68
2022/11/08 00:58:47;;;;;;;9.93;2.60;;;12.90;99.90;;;;;;5114348;28;20063;-68
2022/11/08 01:01:19;;;;;;;10.32;2.78;;;12.80;99.90;;;;;;5114289;28;20055;-68
2022/11/08 01:03:46;;;;;;;10.48;2.47;;;12.80;99.90;;;;;;5114594;28;20070;-68
2022/11/08 01:06:13;;;;;;;17.63;3.78;;;12.70;99.90;;;;;;5114474;28;20112;-68
2022/11/08 01:08:40;;;;;;;14.60;3.05;;;12.70;99.90;;;;;;5114167;28;20074;-68
2022/11/08 01:11:09;;;;;;;12.65;2.75;;;12.70;99.90;;;;;;5114039;28;20399;-68
2022/11/08 01:13:35;;;;;;;14.18;2.72;;;12.60;99.90;;;;;;5114203;28;20046;-68
2022/11/08 01:16:09;;;;;;;10.52;2.55;;;12.60;99.90;;;;;;5115528;28;20039;-68
2022/11/08 01:18:35;;;;;;;13.55;2.97;;;12.60;99.90;;;;;;5114294;28;20438;-68
2022/11/08 01:21:02;;;;;;;9.55;2.47;;;12.60;99.90;;;;;;5113802;28;20035;-68
2022/11/08 01:23:28;;;;;;;14.07;2.55;;;12.50;99.90;;;;;;5113845;28;20096;-68
2022/11/08 01:25:54;;;;;;;12.05;3.00;;;12.50;99.90;;;;;;5114029;28;20043;-68
2022/11/08 01:28:19;;;;;;;9.88;2.83;;;12.50;99.90;;;;;;5114032;28;20036;-68
2022/11/08 01:30:45;;;;;;;11.55;2.30;;;12.50;99.90;;;;;;5113674;28;20610;-68
2022/11/08 01:33:11;;;;;;;13.52;2.83;;;12.40;99.90;;;;;;5113630;28;20044;-68
2022/11/08 01:35:37;;;;;;;12.95;2.85;;;12.40;99.90;;;;;;5114893;28;20100;-68
2022/11/08 01:38:05;;;;;;;10.35;2.22;;;12.40;99.90;;;;;;5113562;28;20036;-68
2022/11/08 01:40:31;;;;;;;11.13;2.50;;;12.40;99.90;;;;;;5113683;28;20035;-68
2022/11/08 01:42:57;;;;;;;12.25;2.55;;;12.40;99.90;;;;;;5113371;28;20085;-68
2022/11/08 01:46:00;;;;;;;10.07;2.85;;;12.40;99.90;;;;;;5113451;28;20032;-68
2022/11/08 01:48:27;;;;;;;11.57;2.42;;;12.40;99.90;;;;;;5113372;28;20416;-68
2022/11/08 01:50:56;;;;;;;13.18;2.58;;;12.40;99.90;;;;;;5113264;28;20043;-68
2022/11/08 01:53:23;;;;;;;14.13;2.53;;;12.40;99.90;;;;;;5114477;28;20039;-68
2022/11/08 01:55:49;;;;;;;18.25;3.15;;;12.30;99.90;;;;;;5114696;28;20100;-68
2022/11/08 01:58:18;;;;;;;11.73;2.70;;;12.30;99.90;;;;;;5114659;28;20036;-68
2022/11/08 02:00:43;;;;;;;13.07;2.67;;;12.30;99.90;;;;;;5113026;28;20039;-68
2022/11/08 02:03:15;;;;;;;10.18;2.67;;;12.20;99.90;;;;;;5096117;28;20054;-68
2022/11/08 02:05:40;;;;;;;12.60;2.50;;;12.30;99.90;;;;;;5113602;28;20102;-68
2022/11/08 02:08:09;;;;;;;12.82;2.97;;;12.20;99.90;;;;;;5112177;28;20452;-68
2022/11/08 02:10:37;;;;;;;12.05;3.00;;;12.20;99.90;;;;;;5114689;28;20039;-68
2022/11/08 02:13:07;;;;;;;15.23;2.97;;;12.20;99.90;;;;;;5114101;28;20071;-68
2022/11/08 02:15:33;;;;;;;8.38;2.50;;;12.20;99.90;;;;;;5113169;28;20407;-68
2022/11/08 02:17:59;;;;;;;10.65;2.72;;;12.20;99.90;;;;;;5114308;28;20114;-68
2022/11/08 02:20:26;;;;;;;13.45;3.10;;;12.10;99.90;;;;;;5112687;28;20042;-68
2022/11/08 02:23:03;;;;;;;10.10;2.67;;;12.10;99.90;;;;;;5112746;28;20050;-68
2022/11/08 02:25:28;;;;;;;14.55;2.83;;;12.10;99.90;;;;;;5112985;28;20039;-68
2022/11/08 02:27:54;;;;;;;14.77;3.03;;;12.00;99.90;;;;;;5113942;28;20403;-68
2022/11/08 02:30:20;;;;;;;11.52;2.78;;;12.00;99.90;;;;;;5112534;28;20040;-68
2022/11/08 02:32:46;;;;;;;18.65;3.28;;;12.00;99.90;;;;;;5112810;28;20043;-69
2022/11/08 02:35:17;;;;;;;9.98;2.60;;;12.00;99.90;;;;;;5112612;28;20499;-69
2022/11/08 02:37:44;;;;;;;7.88;2.22;;;12.00;99.90;;;;;;5112600;28;20035;-69
2022/11/08 02:40:10;;;;;;;8.70;2.17;;;12.00;99.90;;;;;;5112435;28;20043;-69
2022/11/08 02:42:37;;;;;;;11.23;2.58;;;12.00;99.90;;;;;;5112491;28;20096;-69
2022/11/08 02:45:05;;;;;;;8.90;2.70;;;11.90;99.90;;;;;;5112697;28;20122;-69
2022/11/08 02:47:30;;;;;;;13.48;2.90;;;11.90;99.90;;;;;;5112384;28;20545;-68
2022/11/08 02:49:56;;;;;;;13.30;2.83;;;11.90;99.90;;;;;;5112603;28;20052;-68
2022/11/08 02:52:21;;;;;;;12.93;3.03;;;11.90;99.90;;;;;;5113764;28;20411;-68
2022/11/08 02:54:47;;;;;;;14.73;2.90;;;11.90;99.90;;;;;;5113773;28;20071;-68
2022/11/08 02:57:13;;;;;;;11.70;2.97;;;11.90;99.90;;;;;;5113566;28;20035;-68
2022/11/08 02:59:38;;;;;;;9.70;2.72;;;11.80;99.90;;;;;;5112538;28;20092;-68
2022/11/08 03:02:04;;;;;;;10.85;3.20;;;11.80;99.90;;;;;;5112216;28;20480;-68
2022/11/08 03:04:29;;;;;;;9.60;2.17;;;11.80;99.90;;;;;;5112190;28;20095;-68
2022/11/08 03:06:55;;;;;;;10.43;3.00;;;11.80;99.90;;;;;;5113729;28;20122;-68
2022/11/08 03:09:20;;;;;;;10.50;2.78;;;11.80;99.90;;;;;;5095294;28;20043;-68
2022/11/08 03:11:46;;;;;;;8.38;2.40;;;11.80;99.90;;;;;;5113374;28;20044;-68
2022/11/08 03:14:12;;;;;;;9.00;2.58;;;11.80;99.90;;;;;;5112236;28;20068;-68
2022/11/08 03:16:37;;;;;;;14.45;2.65;;;11.80;99.90;;;;;;5113875;28;20446;-68
2022/11/08 03:19:03;;;;;;;11.57;2.67;;;11.80;99.90;;;;;;5115695;28;20067;-68
2022/11/08 03:21:28;;;;;;;11.45;2.83;;;11.70;99.90;;;;;;5116150;28;20069;-68
2022/11/08 03:23:54;;;;;;;12.45;3.35;;;11.70;99.90;;;;;;5116186;28;20059;-68
2022/11/08 03:26:20;;;;;;;15.93;2.30;;;11.70;99.90;;;;;;5116380;28;20036;-68
2022/11/08 03:28:45;;;;;;;10.52;2.70;;;11.70;99.90;;;;;;5117363;28;20458;-68
2022/11/08 03:31:11;;;;;;;13.55;2.58;;;11.70;99.90;;;;;;5116272;28;20035;-68
2022/11/08 03:33:36;;;;;;;10.50;2.35;;;11.70;99.90;;;;;;5116077;28;20404;-68
2022/11/08 03:36:02;;;;;;;10.75;2.78;;;11.70;99.90;;;;;;5115964;28;20411;-68
2022/11/08 03:38:28;;;;;;;9.40;2.10;;;11.70;99.90;;;;;;5115915;28;20089;-68
2022/11/08 03:40:53;;;;;;;10.50;2.50;;;11.70;99.90;;;;;;5116083;28;20039;-68
2022/11/08 03:43:19;;;;;;;8.60;2.40;;;11.70;99.90;;;;;;5115785;28;20052;-68
2022/11/08 03:45:45;;;;;;;11.18;2.53;;;11.60;99.90;;;;;;5117011;28;20042;-68
2022/11/08 03:48:10;;;;;;;10.10;2.40;;;11.60;99.90;;;;;;5115732;28;20054;-68
2022/11/08 03:50:36;;;;;;;11.60;2.40;;;11.60;99.90;;;;;;5117142;28;20035;-68
2022/11/08 03:53:02;;;;;;;6.10;1.90;;;11.60;99.90;;;;;;5115866;28;20046;-68
2022/11/08 03:55:27;;;;;;;11.00;2.45;;;11.60;99.90;;;;;;5115614;28;20484;-68
2022/11/08 03:57:53;;;;;;;12.40;2.70;;;11.50;99.90;;;;;;5115609;28;20039;-68
2022/11/08 04:00:21;;;;;;;8.82;2.45;;;11.50;99.90;;;;;;5115478;28;20035;-68
2022/11/08 04:02:47;;;;;;;9.30;2.53;;;11.50;99.90;;;;;;5117369;28;20484;-68
2022/11/08 04:05:14;;;;;;;9.68;2.70;;;11.50;99.90;;;;;;5115478;28;20036;-68
2022/11/08 04:07:40;;;;;;;10.93;2.50;;;11.50;99.90;;;;;;5116894;28;20040;-68
2022/11/08 04:10:07;;;;;;;8.32;2.53;;;11.50;99.90;;;;;;5116529;28;20028;-68
2022/11/08 04:15:22;;;;;;;11.35;2.30;;;11.50;99.90;;;;;;5115274;28;20083;-68
2022/11/08 04:23:27;;;;;;;10.40;2.00;;;11.40;99.90;;;;;;5115071;28;20119;-68
2022/11/08 04:25:55;;;;;;;9.40;2.45;;;11.50;99.90;;;;;;5116305;28;20046;-68
2022/11/08 04:28:26;;;;;;;10.80;2.25;;;11.50;99.90;;;;;;5115233;28;20480;-68
2022/11/08 04:30:55;;;;;;;9.95;2.08;;;11.50;99.90;;;;;;5115229;28;20056;-68
2022/11/08 04:33:22;;;;;;;8.18;2.17;;;11.50;99.90;;;;;;5114777;28;20182;-68
2022/11/08 04:35:48;;;;;;;6.75;2.33;;;11.50;99.90;;;;;;5116081;28;20048;-68
2022/11/08 04:38:14;;;;;;;10.55;2.28;;;11.50;99.90;;;;;;5097709;28;20053;-68
2022/11/08 04:40:39;;;;;;;8.90;2.15;;;11.50;99.90;;;;;;5114665;28;20067;-68
2022/11/08 04:43:05;;;;;;;6.82;1.88;;;11.50;99.90;;;;;;5114642;28;20036;-68
2022/11/08 04:45:30;;;;;;;12.30;2.55;;;11.50;99.90;;;;;;5114654;28;20044;-68
2022/11/08 04:47:56;;;;;;;8.18;1.90;;;11.50;99.90;;;;;;5114609;28;20065;-68
2022/11/08 04:50:21;;;;;;;5.63;1.50;;;11.50;99.90;;;;;;5114492;28;20035;-68
2022/11/08 04:52:52;;;;;;;6.60;1.67;;;11.50;99.90;;;;;;5114500;28;20093;-68
2022/11/08 04:55:18;;;;;;;9.00;1.95;;;11.50;99.90;;;;;;5115706;28;20404;-68
2022/11/08 04:57:44;;;;;;;8.65;2.00;;;11.50;99.90;;;;;;5114725;28;20138;-68
2022/11/08 05:00:10;;;;;;;6.88;2.05;;;11.50;99.90;;;;;;5114290;28;20524;-69
2022/11/08 05:02:36;;;;;;;11.85;2.97;;;11.50;99.90;;;;;;5114563;28;20063;-69
2022/11/08 05:05:01;;;;;;;11.52;2.47;;;11.50;99.90;;;;;;5115566;28;20495;-69
2022/11/08 05:07:28;;;;;;;7.47;2.00;;;11.40;99.90;;;;;;5114278;28;20123;-69
2022/11/08 05:09:54;;;;;;;10.60;2.28;;;11.40;99.90;;;;;;5114158;28;20047;-68
2022/11/08 05:12:20;;;;;;;7.82;2.13;;;11.40;99.90;;;;;;5114301;28;20073;-68
2022/11/08 05:14:46;;;;;;;7.88;2.03;;;11.40;99.90;;;;;;5115534;28;20040;-68
2022/11/08 05:17:11;;;;;;;8.77;1.88;;;11.40;99.90;;;;;;5115277;28;20075;-68
2022/11/08 05:25:06;;;;;;;8.85;2.05;;;11.40;99.90;;;;;;5114152;28;20047;-68
2022/11/08 05:27:33;;;;;;;9.60;1.83;;;11.40;99.90;;;;;;5115315;28;20471;-68
2022/11/08 05:29:58;;;;;;;8.93;2.42;;;11.40;99.90;;;;;;5113952;28;20105;-68
2022/11/08 05:32:24;;;;;;;9.32;1.77;;;11.40;99.90;;;;;;5113746;28;20496;-68
2022/11/08 05:34:49;;;;;;;6.35;1.50;;;11.40;99.90;;;;;;5113635;28;20055;-68
2022/11/08 05:37:15;;;;;;;8.82;2.60;;;11.40;99.90;;;;;;5113650;28;20071;-68
2022/11/08 05:39:40;;;;;;;6.32;2.05;;;11.40;99.90;;;;;;5113563;28;20040;-68
2022/11/08 05:42:06;;;;;;;7.82;1.75;;;11.40;99.90;;;;;;5114655;28;20044;-68
2022/11/08 05:44:31;;;;;;;6.90;1.80;;;11.40;99.90;;;;;;5113479;28;20039;-68
2022/11/08 05:46:57;;;;;;;11.60;2.20;;;11.40;99.90;;;;;;5113432;28;20047;-68
2022/11/08 05:49:22;;;;;;;9.18;2.17;;;11.30;99.90;;;;;;5113419;28;20043;-68
2022/11/08 05:51:48;;;;;;;6.18;1.80;;;11.40;99.90;;;;;;5114560;28;20035;-68
2022/11/08 05:54:14;;;;;;;10.27;2.65;;;11.30;99.90;;;;;;5113233;28;20048;-68
2022/11/08 05:56:39;;;;;;;6.75;1.90;;;11.30;99.90;;;;;;5113248;28;20099;-68
2022/11/08 05:59:05;;;;;;;7.32;2.00;;;11.30;99.90;;;;;;5113188;28;20039;-68
2022/11/08 06:01:30;;;;;;;8.15;2.08;;;11.30;99.90;;;;;;5113066;28;20031;-68
2022/11/08 06:03:56;;;;;;;8.55;1.95;;;11.30;99.90;;;;;;5114655;28;20047;-68
2022/11/08 06:06:21;;;;;;;7.55;2.13;;;11.30;99.90;;;;;;5113084;28;20127;-68
2022/11/08 06:08:48;;;;;;;6.53;1.73;;;11.30;99.90;;;;;;5113022;28;20039;-68
2022/11/08 06:11:16;;;;;;;8.13;2.35;;;11.30;99.90;;;;;;5114212;28;20031;-68
2022/11/08 06:13:42;;;;;;;6.95;1.90;;;11.20;99.90;;;;;;5112884;28;20043;-68
2022/11/08 06:16:10;;;;;;;7.35;2.05;;;11.20;99.90;;;;;;5113226;28;20044;-68
2022/11/08 06:18:37;;;;;;;7.35;2.13;;;11.20;99.90;;;;;;5114654;28;20084;-68
2022/11/08 06:21:04;;;;;;;7.95;2.35;;;11.20;99.90;;;;;;5112742;28;20043;-68
2022/11/08 06:23:30;;;;;;;7.88;2.10;;;11.20;99.90;;;;;;5113339;28;20055;-68
2022/11/08 06:25:56;;;;;;;8.98;2.20;;;11.20;99.90;;;;;;5112722;28;20123;-68
2022/11/08 06:28:22;;;;;;;8.98;2.15;;;11.20;99.90;;;;;;5114224;28;20118;-69
2022/11/08 06:30:47;;;;;;;8.40;2.05;;;11.20;99.90;;;;;;5095609;28;20050;-69
2022/11/08 06:33:13;;;;;;;8.00;2.05;;;11.20;99.90;;;;;;5112542;28;20051;-69
2022/11/08 06:35:38;;;;;;;9.05;2.05;;;11.20;99.90;;;;;;5112569;28;20092;-69
2022/11/08 06:38:05;;;;;;;9.68;2.45;;;11.20;99.90;;;;;;5095575;28;20046;-69
2022/11/08 06:40:31;;;;;;;9.20;2.20;;;11.20;99.90;;;;;;5112629;28;20053;-69
2022/11/08 06:42:58;;;;;;;8.82;2.83;;;11.10;99.90;;;;;;5112471;28;20043;-68
2022/11/08 06:45:26;;;;;;;10.05;2.03;;;11.20;99.90;;;;;;5112404;28;20078;-68
2022/11/08 06:47:59;;;;;;;9.23;2.40;;;11.20;99.90;;;;;;5112453;28;20036;-68
2022/11/08 06:50:25;;;;;;;7.22;2.20;;;11.20;99.90;;;;;;5112559;28;20448;-68
2022/11/08 06:52:59;;;;;;;13.50;2.70;;;11.20;99.90;;;;;;5111842;28;20446;-69
2022/11/08 06:55:24;;;;;;;7.90;2.03;;;11.20;99.90;;;;;;5095342;28;20047;-68
2022/11/08 06:57:50;;;;;;;6.63;1.95;;;11.20;99.90;;;;;;5112572;28;20042;-68
2022/11/08 07:00:16;;;;;;;11.07;2.80;;;11.20;99.90;;;;;;5113281;28;20039;-69
2022/11/08 07:02:44;;;;;;;7.43;2.45;;;11.20;99.90;;;;;;5112828;28;20399;-69
2022/11/08 07:05:11;;;;;;;10.50;2.75;;;11.20;99.90;;;;;;5112205;28;20086;-69
2022/11/08 07:07:37;;;;;;;8.23;2.13;;;11.30;99.90;;;;;;5112442;28;20036;-69
2022/11/08 07:10:04;;;;;;;9.90;2.53;;;11.30;99.90;;;;;;5112099;28;20032;-69
2022/11/08 07:12:29;;;;;;;10.02;2.40;;;11.30;99.90;;;;;;5113375;28;20040;-69
2022/11/08 07:14:55;;;;;;;9.60;2.60;;;11.30;99.90;;;;;;5112078;28;20051;-69
2022/11/08 07:17:20;;;;;;;6.82;2.05;;;11.30;99.90;;;;;;5112155;28;20036;-69
2022/11/08 07:19:46;;;;;;;7.25;2.20;;;11.30;99.90;;;;;;5112114;28;20032;-68
2022/11/08 07:22:11;;;;;;;9.15;2.38;;;11.40;99.90;;;;;;5111985;28;20046;-68
2022/11/08 07:24:37;;;;;;;7.40;2.78;;;11.40;99.90;;;;;;5112056;28;20072;-68
2022/11/08 07:27:02;;;;;;;6.50;2.03;;;11.40;99.90;;;;;;5113578;28;20047;-68
2022/11/08 07:29:28;;;;;;;9.20;2.03;;;11.40;99.90;;;;;;5112006;28;20069;-69
2022/11/08 07:31:53;;;;;;;10.45;2.22;;;11.40;99.90;;;;;;5113216;28;20114;-69
2022/11/08 07:34:19;;;;;;;8.00;2.10;;;11.40;99.90;;;;;;5113178;28;20075;-69
2022/11/08 07:36:45;;;;;;;9.13;2.15;;;11.50;99.90;;;;;;5111970;28;20070;-68
2022/11/08 07:39:11;;;;;;;6.50;2.20;;;11.50;99.90;;;;;;5111976;28;20050;-68
2022/11/08 07:41:36;;;;;;;5.43;1.90;;;11.50;99.90;;;;;;5111786;28;20040;-68
2022/11/08 07:44:02;;;;;;;7.68;1.90;;;11.50;99.90;;;;;;5111996;28;20043;-68
2022/11/08 07:46:28;;;;;;;5.75;1.88;;;11.60;99.90;;;;;;5113393;28;20373;-68
2022/11/08 07:48:53;;;;;;;7.80;2.10;;;11.60;99.90;;;;;;5112102;28;20048;-68
2022/11/08 07:51:19;;;;;;;6.40;1.70;;;11.60;99.90;;;;;;5113066;28;20092;-68
2022/11/08 07:53:45;;;;;;;7.97;1.90;;;11.60;99.90;;;;;;5113496;28;20480;-68
2022/11/08 07:56:11;;;;;;;7.78;2.05;;;11.60;99.90;;;;;;5113007;28;20484;-68
2022/11/08 07:58:36;;;;;;;6.93;2.17;;;11.70;99.90;;;;;;5112089;28;20119;-68
2022/11/08 08:01:02;;;;;;;7.22;2.05;;;11.70;99.90;;;;;;5112199;28;20123;-68
2022/11/08 08:03:28;;;;;;;5.32;1.98;;;11.70;99.90;;;;;;5111791;28;20115;-68
2022/11/08 08:05:54;;;;;;;8.18;2.33;;;11.80;99.90;;;;;;5113634;28;20119;-68
2022/11/08 08:08:20;;;;;;;7.20;2.28;;;11.80;99.90;;;;;;5115489;28;20075;-68
2022/11/08 08:10:46;;;;;;;7.50;1.92;;;11.90;99.90;;;;;;5115560;28;20096;-68
2022/11/08 08:13:12;;;;;;;7.05;2.10;;;11.90;99.90;;;;;;5115249;28;20040;-68
2022/11/08 08:15:38;;;;;;;6.75;2.20;;;11.90;99.90;;;;;;5115543;28;20092;-70
2022/11/08 08:18:05;;;;;;;5.18;2.10;;;11.90;99.90;;;;;;5116803;28;20381;-69
2022/11/08 08:20:32;;;;;;;6.28;1.92;;;12.00;99.90;;;;;;5115349;28;20062;-69
2022/11/08 08:22:59;;;;;;;6.30;2.20;;;12.00;99.90;;;;;;5115136;28;20047;-70
2022/11/08 08:25:25;;;;;;;6.72;1.80;;;12.00;99.90;;;;;;5115079;28;20032;-69
2022/11/08 08:27:53;;;;;;;9.25;1.85;;;12.00;99.90;;;;;;5116536;28;20046;-69
2022/11/08 08:30:19;;;;;;;6.03;1.75;;;12.10;99.90;;;;;;5097932;28;20095;-69
2022/11/08 08:32:46;;;;;;;9.60;1.98;;;12.10;99.90;;;;;;5115187;28;20043;-69
2022/11/08 08:35:12;;;;;;;5.78;1.65;;;12.10;99.90;;;;;;5114777;28;20492;-69
2022/11/08 08:37:38;;;;;;;7.40;2.08;;;12.20;99.90;;;;;;5114855;28;20039;-69
2022/11/08 08:40:04;;;;;;;7.28;1.85;;;12.20;99.90;;;;;;5114757;28;20039;-69
2022/11/08 08:42:32;;;;;;;5.53;1.60;;;12.20;99.90;;;;;;5114538;28;20564;-69
2022/11/08 08:44:58;;;;;;;6.82;2.22;;;12.30;99.90;;;;;;5114713;28;20160;-69
2022/11/08 08:47:23;;;;;;;7.93;2.08;;;12.30;99.90;;;;;;5115927;28;20076;-69
2022/11/08 08:49:49;;;;;;;5.70;1.70;;;12.40;99.90;;;;;;5114855;28;20373;-69
2022/11/08 08:52:14;;;;;;;7.18;1.88;;;12.40;99.90;;;;;;5114459;28;20434;-69
2022/11/08 08:54:40;;;;;;;4.93;1.60;;;12.50;99.90;;;;;;5114434;28;20043;-69
2022/11/08 08:57:05;;;;;;;6.80;1.92;;;12.60;99.90;;;;;;5114447;28;20039;-69
2022/11/08 08:59:31;;;;;;;3.88;2.03;;;12.60;99.90;;;;;;5114400;28;20096;-69
2022/11/08 09:01:58;;;;;;;3.50;1.55;;;12.70;99.90;;;;;;5115592;28;20035;-69
2022/11/08 09:04:24;;;;;;;8.80;1.92;;;12.70;99.90;;;;;;5114565;28;20047;-69
2022/11/08 09:06:49;;;;;;;6.60;1.90;;;12.80;99.90;;;;;;5114316;28;20385;-69
2022/11/08 09:09:15;;;;;;;5.32;1.92;;;12.80;99.90;;;;;;5097549;28;20076;-69
2022/11/08 09:11:40;;;;;;;4.10;1.50;;;12.90;99.90;;;;;;5114103;28;20492;-69
2022/11/08 09:14:06;;;;;;;7.35;1.67;;;13.00;99.90;;;;;;5115400;28;20044;-69
2022/11/08 09:16:32;;;;;;;5.95;1.90;;;13.00;99.90;;;;;;5113735;28;20067;-69
2022/11/08 09:18:57;;;;;;;4.72;1.80;;;13.10;99.90;;;;;;5115589;28;20039;-69
2022/11/08 09:21:23;;;;;;;3.95;1.73;;;13.20;99.90;;;;;;5113924;28;20038;-69
2022/11/08 09:23:48;;;;;;;3.78;1.60;;;13.20;99.90;;;;;;5113944;28;20047;-69
2022/11/08 09:26:14;;;;;;;4.45;1.65;;;13.30;99.90;;;;;;5114135;28;20085;-69
2022/11/08 09:28:39;;;;;;;4.43;1.75;;;13.30;99.90;;;;;;5115108;28;20043;-69
2022/11/08 09:31:08;;;;;;;5.75;1.77;;;13.40;99.90;;;;;;5113738;28;20035;-69
2022/11/08 09:33:34;;;;;;;6.75;1.60;;;13.40;99.90;;;;;;5113667;28;20047;-69
2022/11/08 09:36:01;;;;;;;7.70;1.70;;;13.50;99.90;;;;;;5115250;28;20129;-69
2022/11/08 09:38:27;;;;;;;3.88;1.42;;;13.50;99.90;;;;;;5113735;28;20042;-69
2022/11/08 09:41:19;;;;;;;6.30;1.50;;;13.50;99.90;;;;;;5113470;28;20039;-69
2022/11/08 09:44:20;;;;;;;6.05;2.08;;;13.50;99.90;;;;;;5113537;28;20047;-69
2022/11/08 09:46:54;;;;;;;4.18;1.55;;;13.50;99.90;;;;;;5091809;28;20101;-69
2022/11/08 09:49:31;;;;;;;10.65;1.73;;;13.50;99.90;;;;;;5113536;28;20131;-69
2022/11/08 09:51:59;;;;;;;5.13;1.90;;;13.50;99.90;;;;;;5114640;28;20035;-69
2022/11/08 09:54:40;;;;;;;5.93;1.75;;;13.50;99.90;;;;;;5113278;28;20082;-69
2022/11/08 09:57:16;;;;;;;9.90;2.35;;;13.50;99.90;;;;;;5114826;28;20071;-69
2022/11/08 09:59:46;;;;;;;5.65;1.90;;;13.60;99.90;;;;;;5114582;28;20035;-69
2022/11/08 10:02:17;;;;;;;3.65;1.75;;;13.50;99.90;;;;;;5113191;28;20031;-69
2022/11/08 10:04:50;;;;;;;5.93;2.08;;;13.60;99.90;;;;;;5113437;28;20050;-69
2022/11/08 10:07:27;;;;;;;;;;;13.60;99.90;;;;;;5115152;28;20063;-69
2022/11/08 10:10:22;;;;;;;7.38;1.83;;;13.60;99.90;;;;;;5113645;28;19981;-69
2022/11/08 10:13:16;;;;;;;5.53;1.98;;;13.70;99.90;;;;;;5113037;28;20043;-69
2022/11/08 10:15:50;;;;;;;4.78;1.70;;;13.70;99.90;;;;;;5101554;28;20507;-69
2022/11/08 10:18:39;;;;;;;7.00;2.13;;;13.70;99.90;;;;;;5112917;28;20043;-69
2022/11/08 10:21:09;;;;;;;5.78;1.60;;;13.70;99.90;;;;;;5114625;28;20498;-69
2022/11/08 10:24:02;;;;;;;7.43;1.60;;;13.80;99.90;;;;;;5112882;28;20046;-69
2022/11/08 10:26:38;;;;;;;4.57;1.77;;;13.80;99.90;;;;;;5113121;28;20070;-69
2022/11/08 10:29:12;;;;;;;6.22;1.95;;;13.90;99.90;;;;;;5095098;28;20496;-69
2022/11/08 10:31:39;;;;;;;4.95;1.60;;;13.90;99.90;;;;;;5112661;28;20073;-69
2022/11/08 10:34:17;;;;;;;6.22;1.73;;;13.90;99.90;;;;;;5113841;28;20508;-69
2022/11/08 10:36:49;;;;;;;4.97;1.58;;;14.00;99.90;;;;;;5112634;28;20085;-69
2022/11/08 10:39:20;;;;;;;3.95;1.60;;;14.00;99.90;;;;;;5112709;28;20047;-69
2022/11/08 10:41:47;;;;;;;4.95;1.60;;;14.00;99.90;;;;;;5112619;28;20063;-69
2022/11/08 10:44:23;;;;;;;4.43;1.70;;;13.90;99.90;;;;;;5112810;28;20098;-69
2022/11/08 10:46:54;;;;;;;5.45;2.05;;;13.90;99.90;;;;;;5113712;28;20131;-69
2022/11/08 10:49:33;;;;;;;6.07;1.40;;;13.80;99.90;;;;;;5112501;28;20197;-69
2022/11/08 10:52:01;;;;;;;3.90;1.70;;;13.80;99.90;;;;;;5112312;28;20036;-69
2022/11/08 10:54:39;;;;;;;4.53;1.80;;;13.70;99.90;;;;;;5112284;28;20050;-69
2022/11/08 10:57:04;;;;;;;5.57;1.58;;;13.70;99.90;;;;;;5112358;28;20044;-69
2022/11/08 10:59:31;;;;;;;5.38;1.83;;;13.70;99.90;;;;;;5112343;28;20044;-69
2022/11/08 11:01:57;;;;;;;6.10;1.75;;;13.60;99.90;;;;;;5112251;28;20039;-69
2022/11/08 11:04:29;;;;;;;6.60;1.75;;;13.60;99.90;;;;;;5113795;28;20097;-69
2022/11/08 11:07:01;;;;;;;3.80;1.70;;;13.60;99.90;;;;;;5112268;28;20051;-68
2022/11/08 11:09:27;;;;;;;6.25;1.65;;;13.60;99.90;;;;;;5112490;28;20047;-68
2022/11/08 11:11:58;;;;;;;5.55;1.63;;;13.60;99.90;;;;;;5112414;28;20554;-68
2022/11/08 11:14:24;;;;;;;3.33;1.35;;;13.60;99.90;;;;;;5113633;28;20043;-68
2022/11/08 11:16:49;;;;;;;4.55;1.40;;;13.70;99.90;;;;;;5112182;28;20106;-68
2022/11/08 11:19:15;;;;;;;3.72;1.40;;;13.80;99.90;;;;;;5113658;28;20127;-68
2022/11/08 11:21:43;;;;;;;5.43;1.50;;;13.90;99.90;;;;;;5112055;28;20108;-68
2022/11/08 11:24:18;;;;;;;7.63;1.40;;;14.00;99.90;;;;;;5113934;28;20040;-68
2022/11/08 11:27:05;;;;;;;6.78;2.00;;;14.10;99.90;;;;;;5112371;28;20056;-69
2022/11/08 11:29:35;;;;;;;3.53;1.45;;;14.20;99.90;;;;;;5112145;28;20127;-69
2022/11/08 11:32:22;;;;;;;4.22;1.60;;;14.30;99.90;;;;;;5111947;28;20504;-69
2022/11/08 11:34:52;;;;;;;5.07;1.63;;;14.40;99.90;;;;;;5111975;28;20423;-68
2022/11/08 11:37:39;;;;;;;4.35;1.45;;;14.40;99.90;;;;;;5112065;28;20040;-69
2022/11/08 11:40:31;;;;;;;6.35;1.90;;;14.40;99.90;;;;;;5115497;28;20071;-69
2022/11/08 11:43:06;;;;;;;7.93;1.70;;;14.40;99.90;;;;;;5116056;28;20039;-68
2022/11/08 11:46:13;;;;;;;5.85;1.65;;;14.30;99.90;;;;;;5115941;28;20087;-72
2022/11/08 11:48:44;;;;;;;3.95;1.45;;;14.40;99.90;;;;;;5115865;28;20408;-68
2022/11/08 11:51:10;;;;;;;4.40;1.60;;;14.30;99.90;;;;;;5115764;28;20458;-68
2022/11/08 11:53:36;;;;;;;4.47;1.30;;;14.40;99.90;;;;;;5116924;28;20126;-68
2022/11/08 11:56:24;;;;;;;7.22;1.58;;;14.30;99.90;;;;;;5115680;28;20035;-68
2022/11/08 11:58:52;;;;;;;8.07;1.90;;;14.40;99.90;;;;;;5115648;28;20116;-68
2022/11/08 12:01:39;;;;;;;4.28;1.88;;;14.40;99.90;;;;;;5115504;28;20036;-69
2022/11/08 12:04:21;;;;;;;4.22;1.55;;;14.40;99.90;;;;;;5115502;28;20521;-69
2022/11/08 12:06:53;;;;;;;5.25;1.60;;;14.40;99.90;;;;;;5115787;28;20551;-69
2022/11/08 12:09:44;;;;;;;6.67;2.00;;;14.70;99.90;;;;;;5117046;28;20039;-69
2022/11/08 12:12:37;;;;;;;6.13;1.60;;;15.50;99.90;;;;;;5115309;28;20788;-69
2022/11/08 12:15:04;;;;;;;3.92;1.30;;;16.30;99.90;;;;;;5115263;28;20095;-69
2022/11/08 12:17:55;;;;;;;4.82;1.40;;;16.80;99.90;;;;;;5116545;28;20067;-69
2022/11/08 12:20:27;;;;;;;4.97;1.67;;;17.00;99.90;;;;;;5115197;28;20039;-69
2022/11/08 12:23:01;;;;;;;4.97;1.85;;;16.60;99.90;;;;;;5115225;28;20035;-69
2022/11/08 12:25:42;;;;;;;4.32;1.92;;;16.20;99.90;;;;;;5116966;28;20059;-69
2022/11/08 12:28:31;;;;;;;5.50;1.95;;;15.80;99.90;;;;;;5115068;28;20048;-70
2022/11/08 12:31:14;;;;;;;5.90;1.80;;;15.50;99.90;;;;;;5068077;28;20130;-69
2022/11/08 12:34:06;;;;;;;7.88;1.73;;;15.20;99.90;;;;;;5114888;28;20083;-69
2022/11/08 12:36:45;;;;;;;5.72;1.70;;;15.00;99.90;;;;;;5114956;28;20504;-69
2022/11/08 12:39:21;;;;;;;5.22;1.73;;;14.80;99.90;;;;;;5115181;28;20496;-69
2022/11/08 12:42:04;;;;;;;5.60;1.60;;;14.70;99.90;;;;;;5114571;28;20050;-69
2022/11/08 12:44:47;;;;;;;7.18;1.98;;;14.60;99.90;;;;;;5115034;28;20056;-69
2022/11/08 12:47:30;;;;;;;6.85;1.70;;;14.60;99.90;;;;;;5115020;28;20043;-69
2022/11/08 12:50:09;;;;;;;8.95;1.80;;;14.50;99.90;;;;;;5114720;28;20092;-69
2022/11/08 12:52:59;;;;;;;4.22;1.65;;;14.50;99.90;;;;;;5113816;28;20081;-69
2022/11/08 12:55:31;;;;;;;6.30;1.83;;;14.50;99.90;;;;;;5114508;28;20180;-69
2022/11/08 12:57:58;;;;;;;4.25;1.70;;;14.70;99.90;;;;;;5115145;28;20036;-69
2022/11/08 13:00:26;;;;;;;6.78;1.95;;;15.40;99.90;;;;;;5114398;28;20120;-69
2022/11/08 13:03:37;;;;;;;6.53;2.03;;;16.40;99.90;;;;;;5114339;28;20480;-69
2022/11/08 13:06:07;;;;;;;4.75;1.83;;;16.90;99.90;;;;;;5115839;28;20043;-69
2022/11/08 13:09:01;;;;;;;6.15;1.75;;;17.20;99.90;;;;;;5114266;28;20077;-69
2022/11/08 13:11:54;;;;;;;5.57;1.73;;;17.70;99.90;;;;;;5114142;28;20049;-69
2022/11/08 13:14:20;;;;;;;;;;;18.20;99.50;;;;;;5114551;28;20042;-69
2022/11/08 13:17:15;;;;;;;5.20;1.73;;;18.80;98.30;;;;;;5114449;28;19915;-69